sensor_id;sensor_type;location;lat;lon;timestamp;pressure;altitude;pressure_sealevel;temperature;humidity
48652;BME280;34442;52.362;-1.302;2023-02-12T00:00:58;102392.94;;;8.58;100.00
48652;BME280;34442;52.362;-1.302;2023-02-12T00:03:23;102398.47;;;8.57;100.00
48652;BME280;34442;52.362;-1.302;2023-02-12T00:05:49;102403.66;;;8.58;100.00
48652;BME280;34442;52.362;-1.302;2023-02-12T00:08:14;102404.50;;;8.59;100.00
48652;BME280;34442;52.362;-1.302;2023-02-12T00:10:43;102399.97;;;8.59;100.00
48652;BME280;34442;52.362;-1.302;2023-02-12T00:13:10;102402.53;;;8.61;100.00
48652;BME280;34442;52.362;-1.302;2023-02-12T00:15:40;102400.53;;;8.63;100.00
48652;BME280;34442;52.362;-1.302;2023-02-12T00:18:06;102399.97;;;8.59;100.00
48652;BME280;34442;52.362;-1.302;2023-02-12T00:20:31;102391.09;;;8.59;100.00
48652;BME280;34442;52.362;-1.302;2023-02-12T00:22:57;102394.94;;;8.56;100.00
48652;BME280;34442;52.362;-1.302;2023-02-12T00:25:22;102386.31;;;8.53;100.00
48652;BME280;34442;52.362;-1.302;2023-02-12T00:27:47;102383.66;;;8.53;100.00
48652;BME280;34442;52.362;-1.302;2023-02-12T00:30:13;102393.66;;;8.51;100.00
48652;BME280;34442;52.362;-1.302;2023-02-12T00:32:39;102392.81;;;8.50;100.00
48652;BME280;34442;52.362;-1.302;2023-02-12T00:35:05;102383.09;;;8.49;100.00
48652;BME280;34442;52.362;-1.302;2023-02-12T00:37:30;102391.97;;;8.50;100.00
48652;BME280;34442;52.362;-1.302;2023-02-12T00:39:56;102390.84;;;8.52;100.00
48652;BME280;34442;52.362;-1.302;2023-02-12T00:42:21;102387.28;;;8.52;100.00
48652;BME280;34442;52.362;-1.302;2023-02-12T00:44:46;102390.69;;;8.54;100.00
48652;BME280;34442;52.362;-1.302;2023-02-12T00:47:12;102388.00;;;8.54;100.00
48652;BME280;34442;52.362;-1.302;2023-02-12T00:49:37;102394.06;;;8.56;100.00
48652;BME280;34442;52.362;-1.302;2023-02-12T00:52:04;102397.75;;;8.55;100.00
48652;BME280;34442;52.362;-1.302;2023-02-12T00:54:30;102395.22;;;8.53;100.00
48652;BME280;34442;52.362;-1.302;2023-02-12T00:56:56;102389.00;;;8.53;100.00
48652;BME280;34442;52.362;-1.302;2023-02-12T00:59:23;102396.06;;;8.54;100.00
48652;BME280;34442;52.362;-1.302;2023-02-12T01:01:49;102398.72;;;8.73;100.00
48652;BME280;34442;52.362;-1.302;2023-02-12T01:04:16;102392.03;;;8.87;100.00
48652;BME280;34442;52.362;-1.302;2023-02-12T01:06:41;102397.78;;;8.92;100.00
48652;BME280;34442;52.362;-1.302;2023-02-12T01:09:06;102400.47;;;8.92;100.00
48652;BME280;34442;52.362;-1.302;2023-02-12T01:11:32;102398.94;;;8.89;100.00
48652;BME280;34442;52.362;-1.302;2023-02-12T01:13:57;102405.28;;;8.88;100.00
48652;BME280;34442;52.362;-1.302;2023-02-12T01:16:24;102410.81;;;8.87;100.00
48652;BME280;34442;52.362;-1.302;2023-02-12T01:18:51;102401.47;;;8.91;100.00
48652;BME280;34442;52.362;-1.302;2023-02-12T01:21:20;102411.19;;;8.92;100.00
48652;BME280;34442;52.362;-1.302;2023-02-12T01:23:46;102410.53;;;8.90;100.00
48652;BME280;34442;52.362;-1.302;2023-02-12T01:26:12;102411.53;;;8.89;100.00
48652;BME280;34442;52.362;-1.302;2023-02-12T01:28:40;102409.53;;;8.91;100.00
48652;BME280;34442;52.362;-1.302;2023-02-12T01:31:14;102405.84;;;8.92;100.00
48652;BME280;34442;52.362;-1.302;2023-02-12T01:33:39;102408.25;;;8.95;100.00
48652;BME280;34442;52.362;-1.302;2023-02-12T01:36:06;102405.00;;;8.91;100.00
48652;BME280;34442;52.362;-1.302;2023-02-12T01:38:31;102404.31;;;8.89;100.00
48652;BME280;34442;52.362;-1.302;2023-02-12T01:41:08;102396.81;;;8.93;100.00
48652;BME280;34442;52.362;-1.302;2023-02-12T01:43:35;102389.91;;;8.90;100.00
48652;BME280;34442;52.362;-1.302;2023-02-12T01:46:01;102387.22;;;8.90;100.00
48652;BME280;34442;52.362;-1.302;2023-02-12T01:48:35;102385.53;;;8.89;100.00
48652;BME280;34442;52.362;-1.302;2023-02-12T01:51:02;102387.50;;;8.87;100.00
48652;BME280;34442;52.362;-1.302;2023-02-12T01:53:32;102389.91;;;8.90;100.00
48652;BME280;34442;52.362;-1.302;2023-02-12T01:56:01;102379.19;;;8.90;100.00
48652;BME280;34442;52.362;-1.302;2023-02-12T01:58:30;102387.91;;;8.92;100.00
48652;BME280;34442;52.362;-1.302;2023-02-12T02:01:00;102383.41;;;8.93;100.00
48652;BME280;34442;52.362;-1.302;2023-02-12T02:03:26;102376.50;;;8.90;100.00
48652;BME280;34442;52.362;-1.302;2023-02-12T02:05:57;102379.00;;;8.92;100.00
48652;BME280;34442;52.362;-1.302;2023-02-12T02:08:25;102364.91;;;8.90;100.00
48652;BME280;34442;52.362;-1.302;2023-02-12T02:10:50;102377.22;;;8.83;100.00
48652;BME280;34442;52.362;-1.302;2023-02-12T02:13:16;102375.25;;;8.85;100.00
48652;BME280;34442;52.362;-1.302;2023-02-12T02:16:08;102381.56;;;8.93;100.00
48652;BME280;34442;52.362;-1.302;2023-02-12T02:18:42;102379.84;;;8.92;100.00
48652;BME280;34442;52.362;-1.302;2023-02-12T02:21:38;102386.22;;;8.91;100.00
48652;BME280;34442;52.362;-1.302;2023-02-12T02:27:01;102382.69;;;8.91;100.00
48652;BME280;34442;52.362;-1.302;2023-02-12T02:38:17;102380.50;;;8.77;100.00
48652;BME280;34442;52.362;-1.302;2023-02-12T02:40:52;102385.22;;;8.92;100.00
48652;BME280;34442;52.362;-1.302;2023-02-12T02:43:25;102386.09;;;8.93;100.00
48652;BME280;34442;52.362;-1.302;2023-02-12T02:45:58;102371.97;;;8.91;100.00
48652;BME280;34442;52.362;-1.302;2023-02-12T02:48:39;102382.22;;;8.58;100.00
48652;BME280;34442;52.362;-1.302;2023-02-12T02:51:12;102382.25;;;8.49;100.00
48652;BME280;34442;52.362;-1.302;2023-02-12T02:53:48;102370.69;;;8.48;100.00
48652;BME280;34442;52.362;-1.302;2023-02-12T02:56:18;102372.28;;;8.78;100.00
48652;BME280;34442;52.362;-1.302;2023-02-12T02:58:51;102386.94;;;8.84;100.00
48652;BME280;34442;52.362;-1.302;2023-02-12T03:01:23;102370.72;;;8.85;100.00
48652;BME280;34442;52.362;-1.302;2023-02-12T03:04:01;102377.22;;;8.83;100.00
48652;BME280;34442;52.362;-1.302;2023-02-12T03:07:03;102369.16;;;8.83;100.00
48652;BME280;34442;52.362;-1.302;2023-02-12T03:09:37;102374.53;;;8.83;100.00
48652;BME280;34442;52.362;-1.302;2023-02-12T03:12:27;102372.56;;;8.85;100.00
48652;BME280;34442;52.362;-1.302;2023-02-12T03:15:11;102374.69;;;8.81;100.00
48652;BME280;34442;52.362;-1.302;2023-02-12T03:17:44;102378.06;;;8.83;100.00
48652;BME280;34442;52.362;-1.302;2023-02-12T03:20:24;102374.53;;;8.83;100.00
48652;BME280;34442;52.362;-1.302;2023-02-12T03:23:09;102373.53;;;8.84;100.00
48652;BME280;34442;52.362;-1.302;2023-02-12T03:26:00;102374.38;;;8.84;100.00
48652;BME280;34442;52.362;-1.302;2023-02-12T03:28:29;102372.56;;;8.85;100.00
48652;BME280;34442;52.362;-1.302;2023-02-12T03:31:05;102374.09;;;8.87;100.00
48652;BME280;34442;52.362;-1.302;2023-02-12T03:33:36;102380.47;;;8.86;100.00
48652;BME280;34442;52.362;-1.302;2023-02-12T03:36:32;102376.94;;;8.86;100.00
48652;BME280;34442;52.362;-1.302;2023-02-12T03:39:09;102377.63;;;8.88;100.00
48652;BME280;34442;52.362;-1.302;2023-02-12T03:50:35;102379.50;;;8.68;100.00
48652;BME280;34442;52.362;-1.302;2023-02-12T03:53:03;102366.25;;;8.66;100.00
48652;BME280;34442;52.362;-1.302;2023-02-12T03:55:31;102373.13;;;8.79;100.00
48652;BME280;34442;52.362;-1.302;2023-02-12T03:58:00;102371.69;;;8.84;100.00
48652;BME280;34442;52.362;-1.302;2023-02-12T04:00:27;102374.69;;;8.81;100.00
48652;BME280;34442;52.362;-1.302;2023-02-12T04:02:53;102372.00;;;8.81;100.00
48652;BME280;34442;52.362;-1.302;2023-02-12T04:05:26;102370.00;;;8.83;100.00
48652;BME280;34442;52.362;-1.302;2023-02-12T04:07:53;102370.28;;;8.80;100.00
48652;BME280;34442;52.362;-1.302;2023-02-12T04:10:34;102370.66;;;8.58;100.00
48652;BME280;34442;52.362;-1.302;2023-02-12T04:16:07;102384.97;;;8.86;100.00
48652;BME280;34442;52.362;-1.302;2023-02-12T04:18:44;102385.97;;;8.85;100.00
48652;BME280;34442;52.362;-1.302;2023-02-12T04:24:26;102383.97;;;8.87;100.00
48652;BME280;34442;52.362;-1.302;2023-02-12T04:26:54;102388.09;;;8.81;100.00
48652;BME280;34442;52.362;-1.302;2023-02-12T04:29:34;102386.81;;;8.85;100.00
48652;BME280;34442;52.362;-1.302;2023-02-12T04:32:15;102384.13;;;8.85;100.00
48652;BME280;34442;52.362;-1.302;2023-02-12T04:37:18;102384.97;;;8.86;100.00
48652;BME280;34442;52.362;-1.302;2023-02-12T04:39:45;102391.47;;;8.83;100.00
48652;BME280;34442;52.362;-1.302;2023-02-12T04:42:12;102378.91;;;8.84;100.00
48652;BME280;34442;52.362;-1.302;2023-02-12T04:44:41;102391.34;;;8.85;100.00
48652;BME280;34442;52.362;-1.302;2023-02-12T04:47:09;102391.47;;;8.83;100.00
48652;BME280;34442;52.362;-1.302;2023-02-12T04:49:35;102390.34;;;8.86;100.00
48652;BME280;34442;52.362;-1.302;2023-02-12T04:52:00;102388.78;;;8.83;100.00
48652;BME280;34442;52.362;-1.302;2023-02-12T04:54:25;102380.75;;;8.83;100.00
48652;BME280;34442;52.362;-1.302;2023-02-12T04:56:51;102383.59;;;8.82;100.00
48652;BME280;34442;52.362;-1.302;2023-02-12T04:59:16;102384.03;;;8.77;100.00
48652;BME280;34442;52.362;-1.302;2023-02-12T05:01:42;102391.06;;;8.78;100.00
48652;BME280;34442;52.362;-1.302;2023-02-12T05:04:10;102390.66;;;8.73;100.00
48652;BME280;34442;52.362;-1.302;2023-02-12T05:06:37;102383.34;;;8.27;100.00
48652;BME280;34442;52.362;-1.302;2023-02-12T05:09:04;102386.03;;;8.17;100.00
48652;BME280;34442;52.362;-1.302;2023-02-12T05:11:30;102386.31;;;8.14;100.00
48652;BME280;34442;52.362;-1.302;2023-02-12T05:13:55;102384.63;;;8.13;100.00
48652;BME280;34442;52.362;-1.302;2023-02-12T05:16:21;102383.94;;;8.11;100.00
48652;BME280;34442;52.362;-1.302;2023-02-12T05:18:47;102379.41;;;8.21;100.00
48652;BME280;34442;52.362;-1.302;2023-02-12T05:21:13;102387.16;;;8.63;100.00
48652;BME280;34442;52.362;-1.302;2023-02-12T05:23:39;102373.41;;;8.76;100.00
48652;BME280;34442;52.362;-1.302;2023-02-12T05:26:09;102380.34;;;8.78;100.00
48652;BME280;34442;52.362;-1.302;2023-02-12T05:28:34;102383.88;;;8.79;100.00
48652;BME280;34442;52.362;-1.302;2023-02-12T05:31:01;102383.59;;;8.82;100.00
48652;BME280;34442;52.362;-1.302;2023-02-12T05:33:27;102383.03;;;8.78;100.00
48652;BME280;34442;52.362;-1.302;2023-02-12T05:35:52;102378.50;;;8.79;100.00
48652;BME280;34442;52.362;-1.302;2023-02-12T05:38:18;102381.19;;;8.79;100.00
48652;BME280;34442;52.362;-1.302;2023-02-12T05:40:43;102376.81;;;8.78;100.00
48652;BME280;34442;52.362;-1.302;2023-02-12T05:43:09;102379.38;;;8.69;100.00
48652;BME280;34442;52.362;-1.302;2023-02-12T05:45:35;102378.66;;;8.77;100.00
48652;BME280;34442;52.362;-1.302;2023-02-12T05:48:02;102376.66;;;8.79;100.00
48652;BME280;34442;52.362;-1.302;2023-02-12T05:50:28;102368.63;;;8.79;100.00
48652;BME280;34442;52.362;-1.302;2023-02-12T05:52:53;102367.78;;;8.79;100.00
48652;BME280;34442;52.362;-1.302;2023-02-12T05:55:19;102373.13;;;8.79;100.00
48652;BME280;34442;52.362;-1.302;2023-02-12T05:57:44;102370.28;;;8.80;100.00
48652;BME280;34442;52.362;-1.302;2023-02-12T06:00:10;102363.25;;;8.79;100.00
48652;BME280;34442;52.362;-1.302;2023-02-12T06:02:35;102373.97;;;8.79;100.00
48652;BME280;34442;52.362;-1.302;2023-02-12T06:05:01;102375.66;;;8.80;100.00
48652;BME280;34442;52.362;-1.302;2023-02-12T06:07:27;102369.78;;;8.77;100.00
48652;BME280;34442;52.362;-1.302;2023-02-12T06:09:52;102375.25;;;8.75;100.00
48652;BME280;34442;52.362;-1.302;2023-02-12T06:12:19;102377.94;;;8.75;100.00
48652;BME280;34442;52.362;-1.302;2023-02-12T06:14:45;102365.53;;;8.74;100.00
48652;BME280;34442;52.362;-1.302;2023-02-12T06:17:10;102364.69;;;8.74;100.00
48652;BME280;34442;52.362;-1.302;2023-02-12T06:19:36;102362.47;;;8.30;100.00
48652;BME280;34442;52.362;-1.302;2023-02-12T06:22:01;102362.34;;;8.22;100.00
48652;BME280;34442;52.362;-1.302;2023-02-12T06:24:27;102366.00;;;8.31;100.00
48652;BME280;34442;52.362;-1.302;2023-02-12T06:26:52;102363.50;;;8.19;100.00
48652;BME280;34442;52.362;-1.302;2023-02-12T06:29:18;102362.91;;;8.16;100.00
48652;BME280;34442;52.362;-1.302;2023-02-12T06:31:44;102358.69;;;8.13;100.00
48652;BME280;34442;52.362;-1.302;2023-02-12T06:34:11;102354.75;;;8.27;100.00
48652;BME280;34442;52.362;-1.302;2023-02-12T06:36:39;102356.84;;;8.14;100.00
48652;BME280;34442;52.362;-1.302;2023-02-12T06:39:06;102357.28;;;8.09;100.00
48652;BME280;34442;52.362;-1.302;2023-02-12T06:41:31;102362.34;;;8.22;100.00
48652;BME280;34442;52.362;-1.302;2023-02-12T06:43:57;102360.22;;;8.55;100.00
48652;BME280;34442;52.362;-1.302;2023-02-12T06:46:22;102352.28;;;8.63;100.00
48652;BME280;34442;52.362;-1.302;2023-02-12T06:48:51;102347.66;;;8.65;100.00
48652;BME280;34442;52.362;-1.302;2023-02-12T06:51:17;102347.66;;;8.26;100.00
48652;BME280;34442;52.362;-1.302;2023-02-12T06:53:46;102351.22;;;8.17;100.00
48652;BME280;34442;52.362;-1.302;2023-02-12T06:56:12;102349.94;;;8.40;100.00
48652;BME280;34442;52.362;-1.302;2023-02-12T06:58:39;102350.75;;;8.60;100.00
48652;BME280;34442;52.362;-1.302;2023-02-12T07:01:20;102368.41;;;8.24;100.00
48652;BME280;34442;52.362;-1.302;2023-02-12T07:03:59;102361.34;;;8.13;100.00
48652;BME280;34442;52.362;-1.302;2023-02-12T07:06:27;102361.09;;;8.07;100.00
48652;BME280;34442;52.362;-1.302;2023-02-12T07:08:54;102365.59;;;8.06;100.00
48652;BME280;34442;52.362;-1.302;2023-02-12T07:11:24;102370.81;;;8.47;100.00
48652;BME280;34442;52.362;-1.302;2023-02-12T07:13:50;102367.97;;;8.58;100.00
48652;BME280;34442;52.362;-1.302;2023-02-12T07:16:16;102365.84;;;8.61;100.00
48652;BME280;34442;52.362;-1.302;2023-02-12T07:18:42;102371.53;;;8.19;100.00
48652;BME280;34442;52.362;-1.302;2023-02-12T07:21:09;102373.22;;;8.11;100.00
48652;BME280;34442;52.362;-1.302;2023-02-12T07:23:35;102377.56;;;8.02;100.00
48652;BME280;34442;52.362;-1.302;2023-02-12T07:26:06;102372.94;;;8.04;100.00
48652;BME280;34442;52.362;-1.302;2023-02-12T07:28:32;102381.13;;;8.03;100.00
48652;BME280;34442;52.362;-1.302;2023-02-12T07:30:59;102388.56;;;8.28;100.00
48652;BME280;34442;52.362;-1.302;2023-02-12T07:33:25;102390.97;;;8.51;100.00
48652;BME280;34442;52.362;-1.302;2023-02-12T07:35:50;102394.94;;;8.56;100.00
48652;BME280;34442;52.362;-1.302;2023-02-12T07:38:15;102401.84;;;8.49;100.00
48652;BME280;34442;52.362;-1.302;2023-02-12T07:40:41;102399.72;;;8.53;100.00
48652;BME280;34442;52.362;-1.302;2023-02-12T07:43:07;102395.91;;;8.16;100.00
48652;BME280;34442;52.362;-1.302;2023-02-12T07:45:32;102391.53;;;8.06;100.00
48652;BME280;34442;52.362;-1.302;2023-02-12T07:47:57;102391.25;;;7.99;100.00
48652;BME280;34442;52.362;-1.302;2023-02-12T07:50:23;102392.78;;;8.02;100.00
48652;BME280;34442;52.362;-1.302;2023-02-12T07:52:48;102393.50;;;8.04;100.00
48652;BME280;34442;52.362;-1.302;2023-02-12T07:55:15;102395.63;;;8.00;100.00
48652;BME280;34442;52.362;-1.302;2023-02-12T07:57:40;102399.97;;;8.01;100.00
48652;BME280;34442;52.362;-1.302;2023-02-12T08:00:07;102406.19;;;8.02;100.00
48652;BME280;34442;52.362;-1.302;2023-02-12T08:02:32;102401.13;;;7.99;100.00
48652;BME280;34442;52.362;-1.302;2023-02-12T08:04:58;102399.13;;;8.01;100.00
48652;BME280;34442;52.362;-1.302;2023-02-12T08:07:24;102402.38;;;8.04;100.00
48652;BME280;34442;52.362;-1.302;2023-02-12T08:09:50;102407.19;;;8.01;100.00
48652;BME280;34442;52.362;-1.302;2023-02-12T08:12:16;102400.41;;;7.96;100.00
48652;BME280;34442;52.362;-1.302;2023-02-12T08:14:41;102406.19;;;8.02;100.00
48652;BME280;34442;52.362;-1.302;2023-02-12T08:17:06;102404.22;;;8.04;100.00
48652;BME280;34442;52.362;-1.302;2023-02-12T08:19:33;102409.69;;;8.02;100.00
48652;BME280;34442;52.362;-1.302;2023-02-12T08:21:58;102409.31;;;8.07;100.00
48652;BME280;34442;52.362;-1.302;2023-02-12T08:24:26;102406.22;;;8.11;100.00
48652;BME280;34442;52.362;-1.302;2023-02-12T08:26:52;102410.00;;;8.09;100.00
48652;BME280;34442;52.362;-1.302;2023-02-12T08:29:20;102410.56;;;8.12;100.00
48652;BME280;34442;52.362;-1.302;2023-02-12T08:31:47;102413.09;;;8.14;100.00
48652;BME280;34442;52.362;-1.302;2023-02-12T08:34:20;102415.94;;;8.12;100.00
48652;BME280;34442;52.362;-1.302;2023-02-12T08:36:47;102411.00;;;8.17;100.00
48652;BME280;34442;52.362;-1.302;2023-02-12T08:39:13;102407.63;;;8.15;100.00
48652;BME280;34442;52.362;-1.302;2023-02-12T08:41:39;102419.88;;;8.18;100.00
48652;BME280;34442;52.362;-1.302;2023-02-12T08:44:06;102412.13;;;8.15;100.00
48652;BME280;34442;52.362;-1.302;2023-02-12T08:46:34;102413.25;;;8.22;100.00
48652;BME280;34442;52.362;-1.302;2023-02-12T08:49:06;102416.66;;;8.24;100.00
48652;BME280;34442;52.362;-1.302;2023-02-12T08:51:34;102416.66;;;8.24;100.00
48652;BME280;34442;52.362;-1.302;2023-02-12T08:54:03;102415.34;;;8.18;100.00
48652;BME280;34442;52.362;-1.302;2023-02-12T08:56:30;102423.69;;;8.25;100.00
48652;BME280;34442;52.362;-1.302;2023-02-12T08:58:57;102423.25;;;8.30;100.00
48652;BME280;34442;52.362;-1.302;2023-02-12T09:01:28;102420.31;;;8.33;100.00
48652;BME280;34442;52.362;-1.302;2023-02-12T09:03:54;102417.63;;;8.33;100.00
48652;BME280;34442;52.362;-1.302;2023-02-12T09:06:21;102421.59;;;8.38;100.00
48652;BME280;34442;52.362;-1.302;2023-02-12T09:08:48;102430.75;;;8.36;100.00
48652;BME280;34442;52.362;-1.302;2023-02-12T09:11:16;102420.16;;;8.34;100.00
48652;BME280;34442;52.362;-1.302;2023-02-12T09:13:43;102418.78;;;8.40;100.00
48652;BME280;34442;52.362;-1.302;2023-02-12T09:16:08;102414.97;;;8.42;100.00
48652;BME280;34442;52.362;-1.302;2023-02-12T09:18:35;102418.63;;;8.41;100.00
48652;BME280;34442;52.362;-1.302;2023-02-12T09:21:04;102424.72;;;8.43;100.00
48652;BME280;34442;52.362;-1.302;2023-02-12T09:23:30;102414.00;;;8.43;100.00
48652;BME280;34442;52.362;-1.302;2023-02-12T09:25:55;102415.41;;;8.48;100.00
48652;BME280;34442;52.362;-1.302;2023-02-12T09:28:21;102418.50;;;8.53;100.00
48652;BME280;34442;52.362;-1.302;2023-02-12T09:30:46;102409.63;;;8.52;100.00
48652;BME280;34442;52.362;-1.302;2023-02-12T09:33:11;102418.50;;;8.53;100.00
48652;BME280;34442;52.362;-1.302;2023-02-12T09:35:38;102413.13;;;8.53;100.00
48652;BME280;34442;52.362;-1.302;2023-02-12T09:38:04;102418.78;;;8.50;100.00
48652;BME280;34442;52.362;-1.302;2023-02-12T09:40:59;102416.50;;;8.55;100.00
48652;BME280;34442;52.362;-1.302;2023-02-12T09:51:51;102412.28;;;8.62;100.00
48652;BME280;34442;52.362;-1.302;2023-02-12T09:54:21;102414.78;;;8.63;100.00
48652;BME280;34442;52.362;-1.302;2023-02-12T09:56:55;102398.28;;;8.68;100.00
48652;BME280;34442;52.362;-1.302;2023-02-12T09:59:42;102409.84;;;8.78;100.00
48652;BME280;34442;52.362;-1.302;2023-02-12T10:02:16;102402.47;;;8.80;100.00
48652;BME280;34442;52.362;-1.302;2023-02-12T10:04:42;102401.78;;;8.78;100.00
48652;BME280;34442;52.362;-1.302;2023-02-12T10:09:58;102398.38;;;8.86;100.00
48652;BME280;34442;52.362;-1.302;2023-02-12T10:12:53;102397.22;;;8.88;100.00
48652;BME280;34442;52.362;-1.302;2023-02-12T10:25:32;102412.03;;;8.92;100.00
48652;BME280;34442;52.362;-1.302;2023-02-12T10:28:07;102407.78;;;9.00;100.00
48652;BME280;34442;52.362;-1.302;2023-02-12T10:33:36;102411.19;;;9.02;100.00
48652;BME280;34442;52.362;-1.302;2023-02-12T10:38:39;102419.09;;;9.03;100.00
48652;BME280;34442;52.362;-1.302;2023-02-12T10:41:09;102413.03;;;9.01;100.00
48652;BME280;34442;52.362;-1.302;2023-02-12T10:43:37;102409.19;;;9.04;100.00
48652;BME280;34442;52.362;-1.302;2023-02-12T10:46:03;102416.50;;;9.11;100.00
48652;BME280;34442;52.362;-1.302;2023-02-12T10:48:37;102410.53;;;9.17;100.00
48652;BME280;34442;52.362;-1.302;2023-02-12T10:56:26;102415.78;;;9.19;100.00
48652;BME280;34442;52.362;-1.302;2023-02-12T10:58:53;102412.28;;;9.09;100.00
48652;BME280;34442;52.362;-1.302;2023-02-12T11:03:47;102412.94;;;9.20;100.00
48652;BME280;34442;52.362;-1.302;2023-02-12T11:06:15;102416.78;;;9.18;100.00
48652;BME280;34442;52.362;-1.302;2023-02-12T11:08:42;102406.91;;;9.18;100.00
48652;BME280;34442;52.362;-1.302;2023-02-12T11:11:20;102415.06;;;9.27;100.00
48652;BME280;34442;52.362;-1.302;2023-02-12T11:16:35;102414.91;;;9.28;100.00
48652;BME280;34442;52.362;-1.302;2023-02-12T11:19:07;102406.69;;;9.30;100.00
48652;BME280;34442;52.362;-1.302;2023-02-12T11:21:34;102407.13;;;9.25;100.00
48652;BME280;34442;52.362;-1.302;2023-02-12T11:26:46;102395.25;;;9.28;100.00
48652;BME280;34442;52.362;-1.302;2023-02-12T11:29:20;102394.13;;;9.30;100.00
48652;BME280;34442;52.362;-1.302;2023-02-12T11:32:08;102395.94;;;9.30;100.00
48652;BME280;34442;52.362;-1.302;2023-02-12T11:34:35;102388.34;;;9.25;100.00
48652;BME280;34442;52.362;-1.302;2023-02-12T11:37:01;102403.31;;;9.28;100.00
48652;BME280;34442;52.362;-1.302;2023-02-12T11:39:29;102398.50;;;9.31;100.00
48652;BME280;34442;52.362;-1.302;2023-02-12T11:42:02;102395.94;;;9.30;100.00
48652;BME280;34442;52.362;-1.302;2023-02-12T11:44:35;102391.28;;;9.32;100.00
48652;BME280;34442;52.362;-1.302;2023-02-12T11:47:07;102394.66;;;9.34;100.00
48652;BME280;34442;52.362;-1.302;2023-02-12T11:49:37;102384.19;;;9.40;100.00
48652;BME280;34442;52.362;-1.302;2023-02-12T11:52:04;102380.22;;;9.44;100.00
48652;BME280;34442;52.362;-1.302;2023-02-12T11:54:45;102389.94;;;9.45;100.00
48652;BME280;34442;52.362;-1.302;2023-02-12T11:57:38;102388.97;;;9.47;100.00
48652;BME280;34442;52.362;-1.302;2023-02-12T12:00:32;102388.81;;;9.48;100.00
48652;BME280;34442;52.362;-1.302;2023-02-12T12:05:50;102381.41;;;9.32;100.00
48652;BME280;34442;52.362;-1.302;2023-02-12T12:08:25;102376.09;;;9.23;100.00
48652;BME280;34442;52.362;-1.302;2023-02-12T12:11:10;102375.94;;;9.24;100.00
48652;BME280;34442;52.362;-1.302;2023-02-12T12:13:46;102374.53;;;9.20;100.00
48652;BME280;34442;52.362;-1.302;2023-02-12T12:19:49;102367.59;;;9.27;100.00
48652;BME280;34442;52.362;-1.302;2023-02-12T12:22:22;102367.69;;;9.35;100.00
48652;BME280;34442;52.362;-1.302;2023-02-12T12:25:03;102355.09;;;9.36;100.00
48652;BME280;34442;52.362;-1.302;2023-02-12T12:27:49;102359.56;;;9.17;100.00
48652;BME280;34442;52.362;-1.302;2023-02-12T12:30:55;102351.03;;;9.32;100.00
48652;BME280;34442;52.362;-1.302;2023-02-12T12:33:45;102352.25;;;9.37;100.00
48652;BME280;34442;52.362;-1.302;2023-02-12T12:42:11;102344.47;;;9.44;100.00
48652;BME280;34442;52.362;-1.302;2023-02-12T12:47:41;102320.38;;;9.52;100.00
48652;BME280;34442;52.362;-1.302;2023-02-12T12:50:24;102321.16;;;9.44;100.00
48652;BME280;34442;52.362;-1.302;2023-02-12T12:58:23;102315.47;;;9.48;100.00
48652;BME280;34442;52.362;-1.302;2023-02-12T13:09:02;102297.06;;;9.53;100.00
48652;BME280;34442;52.362;-1.302;2023-02-12T13:11:54;102302.69;;;9.59;100.00
48652;BME280;34442;52.362;-1.302;2023-02-12T13:17:22;102299.31;;;9.75;100.00
48652;BME280;34442;52.362;-1.302;2023-02-12T13:19:55;102304.28;;;9.70;100.00
48652;BME280;34442;52.362;-1.302;2023-02-12T13:22:35;102292.22;;;9.74;100.00
48652;BME280;34442;52.362;-1.302;2023-02-12T13:25:05;102294.63;;;9.77;100.00
48652;BME280;34442;52.362;-1.302;2023-02-12T13:27:36;102297.22;;;9.69;100.00
48652;BME280;34442;52.362;-1.302;2023-02-12T13:33:04;102299.91;;;9.69;100.00
48652;BME280;34442;52.362;-1.302;2023-02-12T13:35:33;102305.28;;;9.69;100.00
48652;BME280;34442;52.362;-1.302;2023-02-12T13:37:59;102297.22;;;9.87;100.00
48652;BME280;34442;52.362;-1.302;2023-02-12T13:40:28;102302.22;;;9.64;100.00
48652;BME280;34442;52.362;-1.302;2023-02-12T13:43:21;102293.63;;;9.60;100.00
48652;BME280;34442;52.362;-1.302;2023-02-12T13:54:19;102281.03;;;9.97;100.00
48652;BME280;34442;52.362;-1.302;2023-02-12T13:56:50;102275.97;;;9.93;100.00
48652;BME280;34442;52.362;-1.302;2023-02-12T14:04:44;102269.75;;;9.93;100.00
48652;BME280;34442;52.362;-1.302;2023-02-12T14:07:14;102270.50;;;9.85;100.00
48652;BME280;34442;52.362;-1.302;2023-02-12T14:14:52;102251.78;;;10.19;100.00
48652;BME280;34442;52.362;-1.302;2023-02-12T14:24:50;102245.75;;;10.43;100.00
48652;BME280;34442;52.362;-1.302;2023-02-12T14:38:03;102239.22;;;10.46;100.00
48652;BME280;34442;52.362;-1.302;2023-02-12T14:40:46;102235.22;;;10.50;100.00
48652;BME280;34442;52.362;-1.302;2023-02-12T14:43:33;102228.59;;;10.44;100.00
48652;BME280;34442;52.362;-1.302;2023-02-12T14:51:21;102232.66;;;9.97;100.00
48652;BME280;34442;52.362;-1.302;2023-02-12T14:53:53;102228.59;;;9.92;100.00
48652;BME280;34442;52.362;-1.302;2023-02-12T14:56:21;102225.81;;;10.02;100.00
48652;BME280;34442;52.362;-1.302;2023-02-12T14:58:48;102224.28;;;10.00;100.00
48652;BME280;34442;52.362;-1.302;2023-02-12T15:01:15;102216.00;;;9.93;100.00
48652;BME280;34442;52.362;-1.302;2023-02-12T15:03:53;102209.81;;;9.92;100.00
48652;BME280;34442;52.362;-1.302;2023-02-12T15:06:28;102206.34;;;9.82;100.00
48652;BME280;34442;52.362;-1.302;2023-02-12T15:09:12;102203.34;;;9.85;100.00
48652;BME280;34442;52.362;-1.302;2023-02-12T15:11:54;102210.28;;;9.88;100.00
48652;BME280;34442;52.362;-1.302;2023-02-12T15:14:26;102200.13;;;9.82;100.00
48652;BME280;34442;52.362;-1.302;2023-02-12T15:17:38;102205.22;;;9.85;100.00
48652;BME280;34442;52.362;-1.302;2023-02-12T15:20:39;102202.28;;;9.78;100.00
48652;BME280;34442;52.362;-1.302;2023-02-12T15:22:57;102195.25;;;9.77;100.00